Terminal Aerodrome Forecast
Issued by NWS

Home | Current Version | Previous Version | Text Only | Print | Product List | Glossary On
Versions: 1 2 3 4 5 6 7 8 9 10 11 12 13 14 15 16 17
000
FTUS46 KPDT 310500
TAFPSC
TAF
KPSC 310520Z 3106/0106 VRB02KT P6SM OVC012
     FM311000 VRB03KT 5SM BR OVC010
     FM311800 32004KT P6SM OVC015
     FM312100 32004KT P6SM OVC020=

USA.gov is the U.S. government's official web portal to all federal, state and local government web resources and services.